Time;durP1;ratioP1;P1;durP2;ratioP2;P2;SDS_P1;SDS_P2;PMS_P1;PMS_P2;Temp;Humidity;BMP_temperature;BMP_pressure;BME280_temperature;BME280_humidity;BME280_pressure;Samples;Min_cycle;Max_cycle;Signal;HPM_P1;HPM_P2
2021/06/09 00:01:06;;;;;;;8.53;7.27;;;18.50;82.30;;;;;;5000746;28;20265;-83
2021/06/09 00:03:35;;;;;;;8.07;6.83;;;18.50;82.30;;;;;;5003401;28;20210;-82
2021/06/09 00:06:03;;;;;;;7.93;6.90;;;18.50;82.00;;;;;;4998077;28;20238;-82
2021/06/09 00:08:32;;;;;;;7.43;6.80;;;18.50;82.30;;;;;;5003043;28;20203;-82
2021/06/09 00:11:00;;;;;;;8.67;7.10;;;18.50;82.30;;;;;;4998787;28;20206;-83
2021/06/09 00:13:31;;;;;;;7.90;7.20;;;18.40;82.30;;;;;;5002591;28;20222;-82
2021/06/09 00:16:01;;;;;;;8.27;6.90;;;18.30;82.50;;;;;;4999637;28;20258;-82
2021/06/09 00:18:30;;;;;;;7.63;6.60;;;18.20;82.70;;;;;;5002052;28;20228;-84
2021/06/09 00:20:58;;;;;;;8.63;7.50;;;18.10;82.60;;;;;;4998019;28;20223;-82
2021/06/09 00:23:28;;;;;;;7.33;6.60;;;18.10;82.60;;;;;;5002196;28;20343;-82
2021/06/09 00:26:01;;;;;;;7.67;6.87;;;18.10;82.70;;;;;;5008392;28;20214;-83
2021/06/09 00:28:30;;;;;;;9.70;7.23;;;18.10;82.70;;;;;;5013793;28;20208;-82
2021/06/09 00:30:59;;;;;;;7.63;6.83;;;18.10;82.60;;;;;;5015240;28;20641;-84
2021/06/09 00:33:27;;;;;;;7.80;6.63;;;18.00;82.70;;;;;;5008457;28;20685;-82
2021/06/09 00:35:57;;;;;;;7.33;6.73;;;18.00;82.90;;;;;;5003740;28;20557;-81
2021/06/09 00:38:27;;;;;;;7.27;6.60;;;17.90;83.00;;;;;;5005348;28;21085;-84
2021/06/09 00:40:55;;;;;;;7.83;7.03;;;17.80;83.30;;;;;;5002209;28;20358;-83
2021/06/09 00:43:27;;;;;;;9.47;7.17;;;17.70;83.40;;;;;;5001970;28;20975;-82
2021/06/09 00:45:58;;;;;;;10.80;7.47;;;17.70;83.50;;;;;;5000356;28;20214;-83
2021/06/09 00:48:29;;;;;;;8.07;7.37;;;17.70;83.80;;;;;;5000471;28;20203;-82
2021/06/09 00:51:00;;;;;;;8.43;7.60;;;17.60;83.80;;;;;;5004243;28;20211;-81
2021/06/09 00:53:28;;;;;;;8.37;7.57;;;17.60;84.10;;;;;;4995633;28;20198;-82
2021/06/09 00:55:58;;;;;;;8.33;7.50;;;17.50;84.30;;;;;;5002491;28;20636;-82
2021/06/09 00:58:31;;;;;;;8.77;7.73;;;17.50;84.40;;;;;;5000269;28;21045;-82
2021/06/09 01:01:00;;;;;;;8.80;8.00;;;17.30;84.70;;;;;;5001388;28;20697;-83
2021/06/09 01:03:29;;;;;;;8.90;8.00;;;17.40;85.20;;;;;;5002003;28;20760;-82
2021/06/09 01:05:57;;;;;;;8.87;7.93;;;17.20;85.30;;;;;;4998159;28;20218;-83
2021/06/09 01:08:26;;;;;;;10.63;8.23;;;17.10;85.60;;;;;;4999557;28;20207;-82
2021/06/09 01:10:54;;;;;;;8.97;8.07;;;16.90;85.60;;;;;;4999380;28;21423;-82
2021/06/09 01:13:24;;;;;;;8.80;8.00;;;16.90;86.20;;;;;;4998841;28;20208;-83
2021/06/09 01:15:54;;;;;;;9.97;8.10;;;17.00;86.00;;;;;;5000600;28;20233;-82
2021/06/09 01:18:23;;;;;;;8.27;7.57;;;16.90;86.10;;;;;;4976241;28;20212;-83
2021/06/09 01:20:51;;;;;;;9.47;8.53;;;16.90;86.00;;;;;;4997425;28;21362;-82
2021/06/09 01:23:22;;;;;;;8.80;7.90;;;16.80;86.20;;;;;;4991692;28;20411;-82
2021/06/09 01:25:50;;;;;;;8.53;7.73;;;16.80;86.20;;;;;;4998419;28;20207;-83
2021/06/09 01:28:18;;;;;;;8.97;8.17;;;16.80;86.30;;;;;;4997646;28;20203;-84
2021/06/09 01:30:47;;;;;;;9.03;8.13;;;16.80;86.30;;;;;;4999596;28;20218;-82
2021/06/09 01:33:16;;;;;;;8.37;7.57;;;16.70;86.20;;;;;;5006047;28;20199;-82
2021/06/09 01:35:45;;;;;;;8.10;7.40;;;16.70;86.40;;;;;;4999957;28;20247;-81
2021/06/09 01:38:13;;;;;;;8.83;7.93;;;16.60;86.60;;;;;;5001710;28;20222;-82
2021/06/09 01:40:43;;;;;;;11.37;7.67;;;16.60;86.70;;;;;;5001353;28;20203;-82
2021/06/09 01:43:11;;;;;;;9.83;8.83;;;16.70;86.20;;;;;;4996297;28;20604;-81
2021/06/09 01:45:40;;;;;;;9.07;8.17;;;16.70;85.90;;;;;;4999758;28;20547;-82
2021/06/09 01:48:09;;;;;;;8.80;7.93;;;16.80;86.00;;;;;;5001661;28;20230;-85
2021/06/09 01:50:40;;;;;;;8.63;7.83;;;16.70;85.90;;;;;;4996998;28;20211;-82
2021/06/09 01:53:08;;;;;;;8.63;7.77;;;16.60;86.10;;;;;;5002552;28;20826;-83
2021/06/09 01:55:38;;;;;;;8.10;7.50;;;16.50;86.10;;;;;;4998263;28;20324;-80
2021/06/09 01:58:12;;;;;;;9.67;8.60;;;16.40;86.60;;;;;;5002409;28;20274;-82
2021/06/09 02:00:43;;;;;;;8.67;7.70;;;16.30;86.50;;;;;;4999219;28;20232;-84
2021/06/09 02:03:13;;;;;;;8.00;7.30;;;16.30;86.50;;;;;;5003289;28;20624;-82
2021/06/09 02:05:43;;;;;;;9.33;8.40;;;16.20;86.50;;;;;;5019992;28;20313;-85
2021/06/09 02:08:13;;;;;;;8.73;7.87;;;16.20;86.60;;;;;;5022687;28;20235;-83
2021/06/09 02:10:43;;;;;;;8.20;7.37;;;16.20;86.80;;;;;;5026643;28;20743;-84
2021/06/09 02:13:15;;;;;;;9.27;7.50;;;16.10;86.80;;;;;;5020278;28;20203;-82
2021/06/09 02:15:44;;;;;;;9.17;8.27;;;16.00;87.00;;;;;;5012447;28;20230;-82
2021/06/09 02:18:15;;;;;;;9.33;8.37;;;16.00;87.80;;;;;;5028198;28;20205;-84
2021/06/09 02:20:45;;;;;;;8.93;8.00;;;16.10;87.30;;;;;;5031325;28;20199;-82
2021/06/09 02:23:17;;;;;;;9.93;7.80;;;16.20;87.30;;;;;;5029686;28;20344;-85
2021/06/09 02:25:47;;;;;;;9.97;8.27;;;16.20;87.10;;;;;;5028505;28;20199;-83
2021/06/09 02:28:18;;;;;;;8.83;8.13;;;16.20;87.20;;;;;;5018194;28;20203;-82
2021/06/09 02:30:48;;;;;;;10.07;8.17;;;16.30;86.90;;;;;;5016043;28;20202;-83
2021/06/09 02:33:19;;;;;;;10.20;8.57;;;16.20;87.00;;;;;;5014402;28;20211;-83
2021/06/09 02:35:48;;;;;;;8.90;8.03;;;16.10;87.20;;;;;;5009728;28;20767;-84
2021/06/09 02:38:18;;;;;;;8.80;7.97;;;16.10;87.50;;;;;;5005594;28;20211;-83
2021/06/09 02:40:48;;;;;;;9.17;8.27;;;16.10;87.40;;;;;;5003194;28;20360;-82
2021/06/09 02:43:19;;;;;;;9.63;8.57;;;16.10;87.50;;;;;;5000800;28;20207;-81
2021/06/09 02:45:52;;;;;;;9.00;8.20;;;16.20;87.30;;;;;;5003587;28;20691;-83
2021/06/09 02:48:25;;;;;;;9.80;8.80;;;16.30;87.00;;;;;;4999347;28;20382;-84
2021/06/09 02:50:53;;;;;;;10.90;8.73;;;16.30;86.90;;;;;;5001920;28;20207;-84
2021/06/09 02:53:26;;;;;;;9.50;8.50;;;16.30;86.80;;;;;;4997800;28;20500;-83
2021/06/09 02:56:09;;;;;;;8.70;7.90;;;16.30;86.90;;;;;;4998672;28;20269;-84
2021/06/09 02:58:46;;;;;;;9.23;8.33;;;16.20;87.00;;;;;;4999384;28;20546;-82
2021/06/09 03:01:25;;;;;;;9.07;8.27;;;16.20;87.10;;;;;;5003858;28;20206;-85
2021/06/09 03:04:06;;;;;;;9.87;8.13;;;16.20;87.10;;;;;;5008924;28;20195;-82
2021/06/09 03:06:41;;;;;;;9.20;8.30;;;16.20;87.30;;;;;;5005381;28;20345;-81
2021/06/09 03:09:22;;;;;;;8.40;7.60;;;16.20;87.30;;;;;;5006273;28;20556;-84
2021/06/09 03:12:00;;;;;;;9.73;8.13;;;16.30;87.00;;;;;;5013466;28;20478;-82
2021/06/09 03:17:30;;;;;;;9.07;7.80;;;16.30;86.90;;;;;;4983198;28;20215;-85
2021/06/09 03:20:04;;;;;;;10.93;8.10;;;16.40;86.90;;;;;;5004923;28;20210;-81
2021/06/09 03:22:39;;;;;;;8.80;8.00;;;16.40;87.00;;;;;;5002897;28;20203;-82
2021/06/09 03:25:08;;;;;;;9.60;7.70;;;16.40;86.70;;;;;;5004378;28;20196;-82
2021/06/09 03:27:44;;;;;;;8.70;7.80;;;16.50;86.70;;;;;;5006097;28;20206;-86
2021/06/09 03:30:16;;;;;;;8.30;7.50;;;16.50;86.60;;;;;;5008877;28;20484;-82
2021/06/09 03:32:50;;;;;;;7.87;7.17;;;16.50;86.60;;;;;;5005143;28;20308;-81
2021/06/09 03:35:22;;;;;;;10.00;8.23;;;16.60;86.50;;;;;;5009563;28;20269;-84
2021/06/09 03:37:53;;;;;;;9.90;8.03;;;16.60;86.50;;;;;;5005850;28;20680;-83
2021/06/09 03:40:25;;;;;;;8.40;7.70;;;16.60;86.50;;;;;;5011493;28;21343;-82
2021/06/09 03:42:58;;;;;;;7.93;7.23;;;16.60;86.20;;;;;;5019504;28;20210;-85
2021/06/09 03:45:30;;;;;;;8.90;7.67;;;16.60;86.40;;;;;;5016163;28;20246;-83
2021/06/09 03:47:59;;;;;;;11.00;7.67;;;16.60;86.30;;;;;;5004956;28;20856;-83
2021/06/09 03:50:28;;;;;;;8.60;7.80;;;16.70;86.40;;;;;;5000752;28;20207;-82
2021/06/09 03:53:02;;;;;;;8.80;7.90;;;16.70;86.40;;;;;;5009663;28;20259;-84
2021/06/09 03:55:34;;;;;;;8.13;7.43;;;16.80;86.20;;;;;;4999680;28;20708;-82
2021/06/09 03:58:03;;;;;;;8.60;7.70;;;16.80;85.90;;;;;;5003620;28;20276;-82
2021/06/09 04:00:33;;;;;;;9.80;8.23;;;16.90;85.80;;;;;;5004174;28;20202;-83
2021/06/09 04:03:03;;;;;;;8.70;7.80;;;16.90;85.80;;;;;;5000465;28;20203;-84
2021/06/09 04:05:33;;;;;;;9.40;7.97;;;17.00;85.70;;;;;;4999237;28;20206;-83
2021/06/09 04:08:01;;;;;;;8.53;7.63;;;17.00;85.60;;;;;;5001630;28;20215;-84
2021/06/09 04:10:30;;;;;;;11.70;7.77;;;17.00;85.70;;;;;;4999150;28;20211;-83
2021/06/09 04:12:59;;;;;;;8.73;7.97;;;17.00;85.60;;;;;;4999116;28;20207;-84
2021/06/09 04:15:28;;;;;;;9.67;7.40;;;17.20;85.30;;;;;;4992702;28;20286;-85
2021/06/09 04:17:59;;;;;;;8.43;7.63;;;17.20;84.90;;;;;;5000240;28;20981;-81
2021/06/09 04:20:29;;;;;;;8.20;7.40;;;17.30;85.00;;;;;;4999165;28;20203;-83
2021/06/09 04:22:58;;;;;;;9.20;7.27;;;17.40;84.90;;;;;;5002252;28;20272;-83
2021/06/09 04:25:26;;;;;;;8.30;7.53;;;17.40;84.70;;;;;;4997032;28;20767;-83
2021/06/09 04:27:56;;;;;;;7.33;6.63;;;17.40;84.90;;;;;;5002383;28;20199;-83
2021/06/09 04:30:24;;;;;;;8.07;7.27;;;17.50;84.90;;;;;;5003682;28;20277;-84
2021/06/09 04:32:55;;;;;;;8.00;7.30;;;17.50;84.90;;;;;;5004195;28;20874;-83
2021/06/09 04:35:26;;;;;;;8.40;7.40;;;17.60;84.90;;;;;;4999649;28;20283;-84
2021/06/09 04:37:59;;;;;;;8.07;6.87;;;17.80;84.90;;;;;;5011703;28;20211;-83
2021/06/09 04:40:28;;;;;;;8.10;7.17;;;18.00;84.40;;;;;;5000274;28;20454;-83
2021/06/09 04:42:58;;;;;;;7.80;7.20;;;18.10;84.20;;;;;;4998716;28;20194;-83
2021/06/09 04:45:28;;;;;;;8.00;7.27;;;18.20;84.30;;;;;;4998940;28;20202;-83
2021/06/09 04:47:57;;;;;;;7.47;6.77;;;18.20;83.90;;;;;;5001476;28;20214;-83
2021/06/09 04:50:28;;;;;;;8.03;7.30;;;18.20;83.70;;;;;;5001667;28;20994;-85
2021/06/09 04:53:10;;;;;;;7.90;7.10;;;18.20;83.90;;;;;;4994915;28;20234;-83
2021/06/09 04:55:39;;;;;;;8.50;7.00;;;18.20;83.80;;;;;;4989227;28;20227;-84
2021/06/09 04:58:08;;;;;;;10.67;7.30;;;18.30;83.70;;;;;;4965063;28;20208;-83
2021/06/09 05:00:40;;;;;;;8.30;7.43;;;18.40;84.00;;;;;;4986808;28;20283;-83
2021/06/09 05:03:08;;;;;;;10.20;7.63;;;18.60;83.80;;;;;;4984251;28;20219;-84
2021/06/09 05:05:38;;;;;;;8.40;7.50;;;18.70;83.70;;;;;;4984403;28;20200;-82
2021/06/09 05:08:06;;;;;;;7.93;7.00;;;18.80;83.50;;;;;;4995168;28;20273;-85
2021/06/09 05:10:41;;;;;;;10.40;7.97;;;18.80;83.50;;;;;;4982851;28;20211;-82
2021/06/09 05:13:16;;;;;;;8.13;7.20;;;18.80;83.70;;;;;;4983531;28;20230;-83
2021/06/09 05:15:51;;;;;;;8.83;7.70;;;18.70;83.60;;;;;;4978930;28;20210;-84
2021/06/09 05:18:22;;;;;;;9.53;7.73;;;18.70;83.90;;;;;;4987533;28;20214;-82
2021/06/09 05:20:54;;;;;;;8.00;7.20;;;18.70;84.00;;;;;;4980911;28;20230;-82
2021/06/09 05:23:28;;;;;;;8.67;7.80;;;18.80;84.00;;;;;;4987197;28;20207;-84
2021/06/09 05:25:58;;;;;;;8.90;7.70;;;19.10;83.90;;;;;;4970480;28;20208;-83
2021/06/09 05:28:33;;;;;;;9.63;7.80;;;19.20;83.70;;;;;;4987419;28;20732;-85
2021/06/09 05:31:02;;;;;;;8.97;7.50;;;19.40;83.40;;;;;;4982518;28;20966;-84
2021/06/09 05:33:32;;;;;;;8.67;7.77;;;19.50;83.40;;;;;;4985053;28;20285;-84
2021/06/09 05:36:02;;;;;;;8.27;7.57;;;19.50;83.00;;;;;;4978080;28;20604;-83
2021/06/09 05:38:31;;;;;;;10.23;8.03;;;19.50;83.40;;;;;;4982118;28;20234;-84
2021/06/09 05:41:01;;;;;;;9.27;8.07;;;19.60;83.50;;;;;;4978160;28;20207;-84
2021/06/09 05:43:30;;;;;;;9.47;7.30;;;19.70;83.30;;;;;;4980049;28;20434;-82
2021/06/09 05:46:04;;;;;;;8.97;7.77;;;19.80;83.40;;;;;;4970598;28;20606;-84
2021/06/09 05:48:32;;;;;;;8.87;7.67;;;19.80;83.40;;;;;;4984807;28;20295;-83
2021/06/09 05:51:02;;;;;;;14.23;8.00;;;19.90;83.40;;;;;;4973908;28;20211;-81
2021/06/09 05:53:31;;;;;;;8.03;7.17;;;19.90;83.30;;;;;;4970293;28;20595;-82
2021/06/09 05:55:59;;;;;;;8.17;7.40;;;19.70;83.40;;;;;;4977590;28;20215;-84
2021/06/09 05:58:28;;;;;;;9.03;7.40;;;19.80;83.30;;;;;;4985297;28;20243;-82
2021/06/09 06:01:04;;;;;;;8.67;7.80;;;19.90;83.40;;;;;;4979683;28;20231;-82
2021/06/09 06:03:34;;;;;;;9.30;7.17;;;20.10;83.40;;;;;;4980583;28;20633;-82
2021/06/09 06:06:08;;;;;;;7.87;7.17;;;20.20;83.10;;;;;;4974335;28;20331;-83
2021/06/09 06:08:39;;;;;;;7.90;6.97;;;20.20;83.20;;;;;;4974591;28;20279;-82
2021/06/09 06:11:09;;;;;;;10.83;7.03;;;20.10;83.20;;;;;;4976868;28;20281;-85
2021/06/09 06:13:40;;;;;;;8.07;6.33;;;20.30;82.50;;;;;;4980338;28;20207;-85
2021/06/09 06:16:08;;;;;;;8.67;6.40;;;20.40;82.80;;;;;;4971271;28;20210;-84
2021/06/09 06:18:40;;;;;;;7.50;6.80;;;20.40;82.80;;;;;;4979596;28;20671;-85
2021/06/09 06:21:12;;;;;;;7.20;6.30;;;20.40;82.70;;;;;;4970265;28;20572;-85
2021/06/09 06:23:41;;;;;;;7.80;7.00;;;20.60;82.60;;;;;;4972295;28;20200;-84
2021/06/09 06:26:11;;;;;;;8.70;6.73;;;20.70;82.40;;;;;;4974408;28;20208;-85
2021/06/09 06:28:41;;;;;;;6.63;6.10;;;20.90;82.30;;;;;;4975196;28;20208;-84
2021/06/09 06:31:11;;;;;;;7.23;6.20;;;21.10;81.80;;;;;;4969362;28;20350;-85
2021/06/09 06:33:44;;;;;;;7.13;6.00;;;21.30;81.20;;;;;;4973795;28;20486;-86
2021/06/09 06:36:20;;;;;;;6.83;5.80;;;21.30;80.90;;;;;;4972529;28;20686;-83
2021/06/09 06:38:48;;;;;;;7.07;5.67;;;21.50;80.80;;;;;;4972766;28;20320;-85
2021/06/09 06:41:19;;;;;;;5.63;5.10;;;21.50;80.30;;;;;;4972491;28;20366;-86
2021/06/09 06:43:47;;;;;;;6.07;5.43;;;21.50;80.60;;;;;;4973927;28;20195;-84
2021/06/09 06:46:18;;;;;;;6.97;5.47;;;21.60;80.00;;;;;;4963233;28;20254;-83
2021/06/09 06:48:50;;;;;;;6.00;4.93;;;21.60;79.50;;;;;;4976716;28;20219;-86
2021/06/09 06:51:21;;;;;;;13.38;5.30;;;21.60;78.60;;;;;;4970508;28;21256;-85
2021/06/09 06:53:51;;;;;;;5.83;5.23;;;21.70;78.60;;;;;;4970011;28;20199;-84
2021/06/09 06:56:20;;;;;;;4.93;4.50;;;21.70;78.30;;;;;;4966916;28;20204;-85
2021/06/09 06:58:50;;;;;;;5.05;4.55;;;22.00;78.50;;;;;;4977380;28;20794;-85
2021/06/09 07:01:20;;;;;;;6.13;5.25;;;22.10;78.00;;;;;;4981454;28;20195;-82
2021/06/09 07:03:50;;;;;;;5.72;5.20;;;22.20;77.30;;;;;;4973294;28;20533;-84
2021/06/09 07:06:19;;;;;;;5.40;4.88;;;22.20;77.40;;;;;;4968942;28;20215;-86
2021/06/09 07:08:49;;;;;;;5.17;4.70;;;22.20;77.20;;;;;;4973099;28;20306;-86
2021/06/09 07:11:22;;;;;;;5.13;4.13;;;22.30;76.50;;;;;;4968351;28;20227;-84
2021/06/09 07:13:52;;;;;;;6.20;4.85;;;22.40;76.20;;;;;;4971732;28;21123;-85
2021/06/09 07:16:23;;;;;;;4.57;4.20;;;22.30;76.20;;;;;;4969987;28;20514;-86
2021/06/09 07:18:53;;;;;;;4.97;4.40;;;22.30;75.90;;;;;;4972536;28;20756;-84
2021/06/09 07:21:23;;;;;;;5.63;4.60;;;22.30;75.70;;;;;;4965344;28;21094;-84
2021/06/09 07:23:51;;;;;;;6.85;4.78;;;22.40;76.50;;;;;;4951748;28;20397;-86
2021/06/09 07:26:21;;;;;;;5.82;4.60;;;22.50;75.40;;;;;;4970853;28;20227;-86
2021/06/09 07:28:54;;;;;;;5.00;4.60;;;22.60;75.60;;;;;;4984027;28;20235;-85
2021/06/09 07:31:26;;;;;;;5.05;4.57;;;22.80;75.10;;;;;;4991540;28;20568;-85
2021/06/09 07:33:58;;;;;;;4.93;4.40;;;22.70;74.60;;;;;;4992296;28;20487;-85
2021/06/09 07:36:32;;;;;;;5.32;4.82;;;23.00;74.90;;;;;;4970552;28;20191;-84
2021/06/09 07:39:22;;;;;;;4.65;4.35;;;23.30;74.40;;;;;;4978234;28;21512;-88
2021/06/09 07:41:54;;;;;;;4.85;4.45;;;23.60;74.00;;;;;;4987125;28;20630;-85
2021/06/09 07:44:24;;;;;;;4.90;4.40;;;23.60;72.90;;;;;;4980173;28;20207;-88
2021/06/09 07:46:55;;;;;;;4.70;4.20;;;23.60;72.20;;;;;;4983264;28;20204;-89
2021/06/09 07:49:26;;;;;;;7.15;4.22;;;23.50;73.30;;;;;;4976133;28;20320;-91
2021/06/09 07:52:03;;;;;;;5.05;4.40;;;23.50;72.60;;;;;;4997722;28;20203;-88
2021/06/09 07:54:32;;;;;;;4.68;4.22;;;23.30;72.60;;;;;;4983750;28;20203;-83
2021/06/09 07:57:04;;;;;;;5.00;4.50;;;23.40;72.70;;;;;;4993659;28;20234;-89
2021/06/09 07:59:34;;;;;;;4.97;4.43;;;23.50;71.20;;;;;;5016902;23;20245;-88
2021/06/09 08:02:21;;;;;;;4.65;4.25;;;23.50;71.40;;;;;;5049775;23;20336;-88
2021/06/09 08:04:53;;;;;;;4.60;4.18;;;23.50;71.20;;;;;;5019555;28;20206;-88
2021/06/09 08:07:25;;;;;;;5.15;4.65;;;23.30;71.10;;;;;;5026571;28;20199;-87
2021/06/09 08:09:55;;;;;;;5.13;4.18;;;23.50;71.10;;;;;;5015344;28;20472;-85
2021/06/09 08:12:27;;;;;;;5.88;4.82;;;23.60;71.50;;;;;;5018641;28;20656;-86
2021/06/09 08:14:57;;;;;;;7.00;4.50;;;23.80;71.90;;;;;;5009219;28;20949;-85
2021/06/09 08:17:25;;;;;;;4.93;4.38;;;24.20;71.50;;;;;;5008711;28;20225;-86
2021/06/09 08:20:26;;;;;;;4.70;3.97;;;24.20;69.70;;;;;;5006836;28;20228;-87
2021/06/09 08:22:56;;;;;;;4.60;4.00;;;24.30;69.00;;;;;;5007181;28;20210;-84
2021/06/09 08:25:25;;;;;;;4.95;4.07;;;24.20;68.70;;;;;;4996004;28;20855;-89
2021/06/09 08:27:55;;;;;;;4.40;4.05;;;24.20;68.20;;;;;;5001754;28;20211;-87
2021/06/09 08:30:25;;;;;;;4.45;4.07;;;24.10;68.10;;;;;;4984900;28;20215;-86
2021/06/09 08:32:54;;;;;;;4.97;3.78;;;23.90;67.70;;;;;;5004939;28;20209;-86
2021/06/09 08:35:25;;;;;;;9.60;4.57;;;23.70;68.10;;;;;;5005455;28;20199;-87
2021/06/09 08:37:57;;;;;;;5.07;4.50;;;23.50;68.60;;;;;;5011055;28;20302;-90
2021/06/09 08:40:27;;;;;;;5.68;4.15;;;23.60;69.30;;;;;;5021545;28;20187;-90
2021/06/09 08:43:09;;;;;;;4.85;4.30;;;24.10;69.50;;;;;;5000419;28;20210;-88
2021/06/09 08:45:38;;;;;;;5.00;4.50;;;24.40;68.80;;;;;;4992290;28;20194;-85
2021/06/09 08:48:08;;;;;;;4.88;4.05;;;24.60;69.00;;;;;;5009295;28;20250;-84
2021/06/09 08:50:36;;;;;;;5.15;4.00;;;24.80;69.40;;;;;;4996390;28;20198;-85
2021/06/09 08:53:06;;;;;;;4.80;3.88;;;24.90;67.40;;;;;;4995127;28;20199;-85
2021/06/09 08:55:36;;;;;;;7.07;4.55;;;25.00;67.10;;;;;;4986917;28;20206;-86
2021/06/09 08:58:11;;;;;;;5.53;3.63;;;24.90;66.60;;;;;;4996859;28;20317;-88
2021/06/09 09:00:44;;;;;;;5.32;3.60;;;24.70;65.60;;;;;;4990044;28;20217;-89
2021/06/09 09:03:13;;;;;;;4.63;3.63;;;24.70;64.70;;;;;;4994029;28;20206;-88
2021/06/09 09:05:43;;;;;;;4.57;4.15;;;24.70;64.00;;;;;;4996901;28;20222;-88
2021/06/09 09:08:17;;;;;;;6.13;4.18;;;24.70;65.30;;;;;;4999596;28;20613;-86
2021/06/09 09:10:46;;;;;;;6.35;4.00;;;24.70;65.20;;;;;;5003699;28;20766;-87
2021/06/09 09:13:15;;;;;;;4.85;4.13;;;24.90;65.60;;;;;;4992503;28;20241;-86
2021/06/09 09:15:43;;;;;;;5.43;4.00;;;24.70;64.90;;;;;;4989057;28;20198;-87
2021/06/09 09:18:12;;;;;;;4.40;3.67;;;24.80;65.40;;;;;;4991841;28;21030;-84
2021/06/09 09:20:43;;;;;;;3.75;3.45;;;24.90;64.60;;;;;;4987418;28;20210;-86
2021/06/09 09:23:23;;;;;;;4.55;3.63;;;25.00;64.10;;;;;;4995853;28;20482;-85
2021/06/09 09:25:56;;;;;;;5.95;3.40;;;24.70;63.50;;;;;;4973169;28;20215;-87
2021/06/09 09:28:30;;;;;;;7.13;4.40;;;24.50;63.80;;;;;;4989197;28;20203;-85
2021/06/09 09:31:10;;;;;;;5.97;4.22;;;24.30;64.30;;;;;;4995260;28;20206;-85
2021/06/09 09:33:39;;;;;;;6.07;3.95;;;24.20;65.20;;;;;;4994218;28;20649;-87
2021/06/09 09:36:26;;;;;;;4.32;3.92;;;24.50;65.90;;;;;;4989887;28;20448;-86
2021/06/09 09:38:57;;;;;;;4.75;3.95;;;24.40;65.10;;;;;;4975709;28;20518;-85
2021/06/09 09:41:30;;;;;;;4.53;4.13;;;24.20;65.40;;;;;;4982904;28;20567;-87
2021/06/09 09:44:00;;;;;;;6.00;4.93;;;24.30;66.50;;;;;;5000940;28;21031;-86
2021/06/09 09:46:32;;;;;;;7.95;4.68;;;24.70;65.50;;;;;;5015374;28;20369;-86
2021/06/09 09:49:07;;;;;;;5.22;4.38;;;24.80;64.90;;;;;;5017006;28;20206;-85
2021/06/09 09:51:38;;;;;;;5.53;4.20;;;25.00;65.40;;;;;;4996451;28;21356;-87
2021/06/09 09:54:09;;;;;;;4.85;4.35;;;25.10;65.30;;;;;;4995247;28;20569;-84
2021/06/09 09:56:39;;;;;;;5.78;4.63;;;25.10;65.70;;;;;;4981342;28;20890;-86
2021/06/09 09:59:09;;;;;;;6.95;5.00;;;24.90;65.90;;;;;;4983788;28;20238;-86
2021/06/09 10:01:41;;;;;;;4.95;4.55;;;25.00;66.20;;;;;;4973956;28;20209;-87
2021/06/09 10:04:16;;;;;;;7.68;4.70;;;25.40;65.10;;;;;;4991453;28;20233;-84
2021/06/09 10:06:50;;;;;;;5.78;4.88;;;25.40;64.50;;;;;;4994972;28;20211;-85
2021/06/09 10:09:23;;;;;;;5.80;4.47;;;25.50;64.50;;;;;;4993827;28;20207;-90
2021/06/09 10:11:54;;;;;;;5.25;4.57;;;25.80;65.90;;;;;;5000656;28;20207;-87
2021/06/09 10:14:26;;;;;;;6.22;4.90;;;25.60;64.60;;;;;;5001709;28;20203;-90
2021/06/09 10:17:01;;;;;;;5.50;5.00;;;25.30;64.90;;;;;;5015104;28;20780;-86
2021/06/09 10:22:25;;;;;;;5.22;4.53;;;24.60;65.10;;;;;;5251373;23;20230;-85
2021/06/09 10:41:36;;;;;;;5.85;5.15;;;24.80;65.10;;;;;;5275535;23;20626;-86
2021/06/09 11:16:56;;;;;;;5.30;4.80;;;25.20;62.50;;;;;;4979204;28;20731;-88
2021/06/09 11:20:22;;;;;;;5.35;4.82;;;25.10;63.30;;;;;;4978874;28;20696;-84
2021/06/09 11:23:33;;;;;;;5.07;4.57;;;25.40;63.60;;;;;;4979386;28;20211;-86
2021/06/09 11:27:06;;;;;;;4.97;4.57;;;25.40;63.40;;;;;;4974698;23;20519;-85
2021/06/09 11:48:39;;;;;;;4.40;4.10;;;24.90;62.00;;;;;;4940845;29;20857;-85
2021/06/09 12:15:12;;;;;;;4.70;4.32;;;25.40;61.20;;;;;;5012521;28;20211;-84
2021/06/09 12:24:21;;;;;;;5.32;4.82;;;25.70;60.90;;;;;;5244002;23;20226;-82
2021/06/09 12:30:59;;;;;;;6.35;5.03;;;25.50;61.70;;;;;;5025485;28;20270;-84
2021/06/09 12:33:44;;;;;;;5.82;5.03;;;25.70;61.60;;;;;;5012487;28;20744;-80
2021/06/09 12:36:15;;;;;;;5.47;4.97;;;25.90;61.10;;;;;;5020413;28;20202;-81
2021/06/09 12:38:58;;;;;;;4.88;4.47;;;26.00;60.80;;;;;;5017402;28;20710;-84
2021/06/09 12:41:30;;;;;;;5.97;4.72;;;26.10;60.90;;;;;;5015887;28;20581;-84
2021/06/09 12:44:11;;;;;;;6.60;4.82;;;25.80;60.70;;;;;;5009567;28;20203;-82
2021/06/09 12:46:50;;;;;;;5.85;5.28;;;25.70;61.30;;;;;;5013268;28;20221;-84
2021/06/09 12:49:32;;;;;;;6.10;5.15;;;25.90;60.80;;;;;;5013207;28;20225;-81
2021/06/09 12:52:11;;;;;;;6.15;4.75;;;25.90;60.80;;;;;;5015110;28;20203;-82
2021/06/09 12:54:53;;;;;;;6.03;5.43;;;25.90;60.90;;;;;;5010234;28;20389;-82
2021/06/09 12:57:30;;;;;;;5.68;5.18;;;25.90;60.80;;;;;;5014353;28;20218;-81
2021/06/09 13:00:00;;;;;;;5.65;5.13;;;26.10;61.40;;;;;;5009602;28;20665;-81
2021/06/09 13:02:31;;;;;;;5.82;5.35;;;26.50;61.80;;;;;;5016588;28;20207;-83
2021/06/09 13:04:59;;;;;;;5.45;4.93;;;26.90;60.40;;;;;;5011498;28;20217;-83
2021/06/09 13:07:45;;;;;;;5.43;4.93;;;27.00;61.10;;;;;;5015734;28;20416;-82
2021/06/09 13:10:19;;;;;;;7.38;5.47;;;27.30;60.90;;;;;;5008621;28;20507;-82
2021/06/09 13:12:52;;;;;;;5.63;5.18;;;27.30;60.80;;;;;;5006716;28;20264;-82
2021/06/09 13:15:21;;;;;;;5.88;5.30;;;27.40;61.00;;;;;;5005025;28;20625;-81
2021/06/09 13:17:51;;;;;;;6.32;5.00;;;27.40;59.70;;;;;;4999132;28;20211;-81
2021/06/09 13:20:22;;;;;;;5.43;5.00;;;27.40;59.40;;;;;;5003188;28;21243;-82
2021/06/09 13:22:51;;;;;;;6.28;5.55;;;27.30;59.20;;;;;;5015407;28;20219;-81
2021/06/09 13:25:22;;;;;;;6.18;5.15;;;27.20;59.60;;;;;;5013574;28;20207;-83
2021/06/09 13:27:54;;;;;;;5.65;5.10;;;27.10;60.10;;;;;;5013636;28;20272;-83
2021/06/09 13:30:25;;;;;;;9.77;5.70;;;27.00;59.70;;;;;;5018420;28;20653;-82
2021/06/09 13:32:57;;;;;;;6.05;5.45;;;27.30;60.10;;;;;;5017175;28;20210;-80
2021/06/09 13:35:27;;;;;;;8.20;5.10;;;27.40;59.20;;;;;;5014966;28;20823;-83
2021/06/09 13:37:59;;;;;;;5.93;5.38;;;27.50;59.20;;;;;;5013346;28;20203;-83
2021/06/09 13:40:31;;;;;;;6.03;5.53;;;27.70;59.20;;;;;;5008685;28;20444;-84
2021/06/09 13:43:02;;;;;;;7.05;5.10;;;28.00;59.50;;;;;;5013797;28;20315;-83
2021/06/09 13:45:33;;;;;;;6.93;5.35;;;28.50;59.50;;;;;;5014116;28;20237;-81
2021/06/09 13:48:07;;;;;;;4.93;4.53;;;28.70;59.90;;;;;;5010339;28;20698;-79
2021/06/09 13:50:38;;;;;;;5.35;4.85;;;29.10;57.80;;;;;;5006788;28;21134;-82
2021/06/09 13:53:09;;;;;;;5.00;4.50;;;29.30;56.60;;;;;;5008761;28;20534;-82
2021/06/09 13:55:40;;;;;;;5.38;4.85;;;29.70;57.20;;;;;;5012169;28;21179;-81
2021/06/09 13:58:23;;;;;;;8.27;5.18;;;30.00;57.00;;;;;;5012806;28;20544;-82
2021/06/09 14:00:54;;;;;;;5.93;4.65;;;30.40;55.90;;;;;;5017782;28;20203;-83
2021/06/09 14:03:33;;;;;;;5.55;5.05;;;31.00;56.30;;;;;;5017459;28;20199;-83
2021/06/09 14:06:13;;;;;;;9.57;4.90;;;31.60;55.30;;;;;;5014143;28;20233;-82
2021/06/09 14:08:41;;;;;;;5.60;5.00;;;32.30;55.80;;;;;;5025628;28;20678;-82
2021/06/09 14:11:11;;;;;;;6.80;5.18;;;32.60;54.60;;;;;;5017972;28;20625;-82
2021/06/09 14:13:42;;;;;;;7.18;5.15;;;32.60;54.50;;;;;;5017838;28;20305;-81
2021/06/09 14:16:20;;;;;;;5.60;4.90;;;33.00;54.10;;;;;;5016414;28;20194;-83
2021/06/09 14:18:51;;;;;;;7.00;4.72;;;33.60;54.50;;;;;;5027225;28;20426;-82
2021/06/09 14:21:19;;;;;;;5.32;4.78;;;34.10;53.10;;;;;;5014992;28;20199;-79
2021/06/09 14:23:58;;;;;;;5.93;5.10;;;34.40;52.00;;;;;;5010663;28;20784;-82
2021/06/09 14:26:56;;;;;;;5.68;5.15;;;33.40;51.60;;;;;;4996059;28;20206;-82
2021/06/09 14:29:26;;;;;;;5.38;4.97;;;31.80;50.70;;;;;;5019080;28;20195;-81
2021/06/09 14:31:55;;;;;;;5.90;5.50;;;30.60;51.30;;;;;;5031373;28;20195;-80
2021/06/09 14:34:38;;;;;;;5.82;5.22;;;29.30;51.80;;;;;;5027183;28;20186;-82
2021/06/09 14:37:17;;;;;;;5.47;4.97;;;28.10;53.10;;;;;;5026790;28;20677;-85
2021/06/09 14:39:47;;;;;;;8.25;5.25;;;28.30;52.90;;;;;;5025062;28;20230;-81
2021/06/09 14:42:23;;;;;;;5.38;4.90;;;29.30;54.00;;;;;;5029387;28;20206;-82
2021/06/09 14:44:52;;;;;;;5.75;5.25;;;30.50;52.70;;;;;;5025622;28;20214;-82
2021/06/09 14:47:39;;;;;;;4.97;4.57;;;31.70;52.20;;;;;;5017267;28;20432;-83
2021/06/09 14:50:10;;;;;;;5.13;4.65;;;32.70;52.30;;;;;;5024937;28;20207;-80
2021/06/09 14:52:41;;;;;;;5.15;4.45;;;33.50;51.50;;;;;;5024936;28;20199;-81
2021/06/09 14:55:15;;;;;;;5.00;4.60;;;33.70;50.70;;;;;;5027149;28;20221;-81
2021/06/09 14:57:47;;;;;;;4.75;4.30;;;34.10;51.00;;;;;;5026363;28;20202;-83
2021/06/09 15:00:20;;;;;;;5.18;4.68;;;34.50;49.70;;;;;;5028298;28;20324;-82